sensor_id;sensor_type;location;lat;lon;timestamp;temperature;humidity
4826;DHT22;2427;50.934;6.776;2022-10-31T00:02:02;13.70;99.90
4826;DHT22;2427;50.934;6.776;2022-10-31T00:04:28;13.70;99.90
4826;DHT22;2427;50.934;6.776;2022-10-31T00:06:53;13.70;99.90
4826;DHT22;2427;50.934;6.776;2022-10-31T00:09:19;13.70;46.50
4826;DHT22;2427;50.934;6.776;2022-10-31T00:11:45;13.60;99.90
4826;DHT22;2427;50.934;6.776;2022-10-31T00:14:10;13.60;99.90
4826;DHT22;2427;50.934;6.776;2022-10-31T00:16:36;13.70;99.90
4826;DHT22;2427;50.934;6.776;2022-10-31T00:19:05;13.70;99.90
4826;DHT22;2427;50.934;6.776;2022-10-31T00:21:31;13.70;99.90
4826;DHT22;2427;50.934;6.776;2022-10-31T00:23:58;13.60;99.90
4826;DHT22;2427;50.934;6.776;2022-10-31T00:26:24;13.50;99.90
4826;DHT22;2427;50.934;6.776;2022-10-31T00:28:49;13.50;99.90
4826;DHT22;2427;50.934;6.776;2022-10-31T00:31:16;13.50;1.00
4826;DHT22;2427;50.934;6.776;2022-10-31T00:33:42;13.50;1.00
4826;DHT22;2427;50.934;6.776;2022-10-31T00:36:14;13.40;99.90
4826;DHT22;2427;50.934;6.776;2022-10-31T00:38:44;13.50;1.00
4826;DHT22;2427;50.934;6.776;2022-10-31T00:41:10;13.40;1.00
4826;DHT22;2427;50.934;6.776;2022-10-31T00:43:36;13.50;1.00
4826;DHT22;2427;50.934;6.776;2022-10-31T00:46:02;13.50;1.00
4826;DHT22;2427;50.934;6.776;2022-10-31T00:48:28;13.50;1.00
4826;DHT22;2427;50.934;6.776;2022-10-31T00:50:53;13.40;1.00
4826;DHT22;2427;50.934;6.776;2022-10-31T00:53:19;13.50;1.00
4826;DHT22;2427;50.934;6.776;2022-10-31T00:55:44;13.50;1.00
4826;DHT22;2427;50.934;6.776;2022-10-31T00:58:10;13.50;1.00
4826;DHT22;2427;50.934;6.776;2022-10-31T01:00:35;13.50;1.00
4826;DHT22;2427;50.934;6.776;2022-10-31T01:03:01;13.60;99.90
4826;DHT22;2427;50.934;6.776;2022-10-31T01:05:27;13.60;99.90
4826;DHT22;2427;50.934;6.776;2022-10-31T01:07:52;13.70;99.90
4826;DHT22;2427;50.934;6.776;2022-10-31T01:10:18;13.70;99.90
4826;DHT22;2427;50.934;6.776;2022-10-31T01:12:46;13.60;1.00
4826;DHT22;2427;50.934;6.776;2022-10-31T01:15:14;13.70;1.00
4826;DHT22;2427;50.934;6.776;2022-10-31T01:17:40;13.60;1.00
4826;DHT22;2427;50.934;6.776;2022-10-31T01:20:07;13.60;1.00
4826;DHT22;2427;50.934;6.776;2022-10-31T01:22:33;13.50;1.00
4826;DHT22;2427;50.934;6.776;2022-10-31T01:24:59;13.50;1.00
4826;DHT22;2427;50.934;6.776;2022-10-31T01:27:25;13.40;1.00
4826;DHT22;2427;50.934;6.776;2022-10-31T01:29:50;13.40;38.40
4826;DHT22;2427;50.934;6.776;2022-10-31T01:32:16;13.40;29.40
4826;DHT22;2427;50.934;6.776;2022-10-31T01:34:42;13.40;1.00
4826;DHT22;2427;50.934;6.776;2022-10-31T01:37:07;13.40;27.70
4826;DHT22;2427;50.934;6.776;2022-10-31T01:39:33;13.40;99.90
4826;DHT22;2427;50.934;6.776;2022-10-31T01:41:58;13.30;99.90
4826;DHT22;2427;50.934;6.776;2022-10-31T01:49:21;13.30;99.90
4826;DHT22;2427;50.934;6.776;2022-10-31T01:51:52;13.30;99.90
4826;DHT22;2427;50.934;6.776;2022-10-31T01:54:22;13.20;99.90
4826;DHT22;2427;50.934;6.776;2022-10-31T01:56:52;13.20;1.00
4826;DHT22;2427;50.934;6.776;2022-10-31T01:59:21;13.20;1.00
4826;DHT22;2427;50.934;6.776;2022-10-31T02:12:22;13.10;37.50
4826;DHT22;2427;50.934;6.776;2022-10-31T02:14:48;13.00;99.90
4826;DHT22;2427;50.934;6.776;2022-10-31T02:17:14;13.00;99.90
4826;DHT22;2427;50.934;6.776;2022-10-31T02:27:50;12.80;1.00
4826;DHT22;2427;50.934;6.776;2022-10-31T02:30:27;12.70;1.00
4826;DHT22;2427;50.934;6.776;2022-10-31T02:33:04;12.70;1.00
4826;DHT22;2427;50.934;6.776;2022-10-31T02:36:04;12.70;1.00
4826;DHT22;2427;50.934;6.776;2022-10-31T02:44:17;12.60;15.40
4826;DHT22;2427;50.934;6.776;2022-10-31T02:46:53;12.50;1.00
4826;DHT22;2427;50.934;6.776;2022-10-31T02:49:28;12.40;99.90
4826;DHT22;2427;50.934;6.776;2022-10-31T02:51:56;12.40;1.00
4826;DHT22;2427;50.934;6.776;2022-10-31T02:54:24;12.40;1.00
4826;DHT22;2427;50.934;6.776;2022-10-31T02:56:54;12.40;99.90
4826;DHT22;2427;50.934;6.776;2022-10-31T02:59:22;12.30;99.90
4826;DHT22;2427;50.934;6.776;2022-10-31T03:08:24;12.20;99.90
4826;DHT22;2427;50.934;6.776;2022-10-31T03:16:16;12.10;99.90
4826;DHT22;2427;50.934;6.776;2022-10-31T03:18:58;12.20;1.00
4826;DHT22;2427;50.934;6.776;2022-10-31T03:21:51;12.20;1.00
4826;DHT22;2427;50.934;6.776;2022-10-31T03:24:21;12.20;1.00
4826;DHT22;2427;50.934;6.776;2022-10-31T03:26:51;12.20;99.90
4826;DHT22;2427;50.934;6.776;2022-10-31T03:29:22;12.20;94.20
4826;DHT22;2427;50.934;6.776;2022-10-31T03:31:57;12.20;1.00
4826;DHT22;2427;50.934;6.776;2022-10-31T03:34:24;12.20;1.00
4826;DHT22;2427;50.934;6.776;2022-10-31T03:36:54;12.20;1.00
4826;DHT22;2427;50.934;6.776;2022-10-31T03:39:22;12.20;1.00
4826;DHT22;2427;50.934;6.776;2022-10-31T03:42:05;12.20;1.00
4826;DHT22;2427;50.934;6.776;2022-10-31T03:44:33;12.20;1.00
4826;DHT22;2427;50.934;6.776;2022-10-31T03:47:01;12.20;99.90
4826;DHT22;2427;50.934;6.776;2022-10-31T03:49:27;12.20;55.20
4826;DHT22;2427;50.934;6.776;2022-10-31T03:52:04;12.20;60.40
4826;DHT22;2427;50.934;6.776;2022-10-31T03:54:43;12.20;1.00
4826;DHT22;2427;50.934;6.776;2022-10-31T03:57:21;12.20;47.20
4826;DHT22;2427;50.934;6.776;2022-10-31T04:00:08;12.20;27.10
4826;DHT22;2427;50.934;6.776;2022-10-31T04:02:38;12.20;1.00
4826;DHT22;2427;50.934;6.776;2022-10-31T04:05:05;12.20;1.00
4826;DHT22;2427;50.934;6.776;2022-10-31T04:07:35;12.20;1.00
4826;DHT22;2427;50.934;6.776;2022-10-31T04:10:05;12.20;1.00
4826;DHT22;2427;50.934;6.776;2022-10-31T04:12:34;12.20;1.00
4826;DHT22;2427;50.934;6.776;2022-10-31T04:15:03;12.20;25.90
4826;DHT22;2427;50.934;6.776;2022-10-31T04:17:31;12.20;68.10
4826;DHT22;2427;50.934;6.776;2022-10-31T04:20:01;12.20;99.90
4826;DHT22;2427;50.934;6.776;2022-10-31T04:22:27;12.20;99.90
4826;DHT22;2427;50.934;6.776;2022-10-31T04:24:53;12.20;99.90
4826;DHT22;2427;50.934;6.776;2022-10-31T04:27:19;12.20;99.90
4826;DHT22;2427;50.934;6.776;2022-10-31T04:29:44;12.30;99.90
4826;DHT22;2427;50.934;6.776;2022-10-31T04:32:10;12.30;1.00
4826;DHT22;2427;50.934;6.776;2022-10-31T04:34:35;12.40;1.00
4826;DHT22;2427;50.934;6.776;2022-10-31T04:37:01;12.40;1.00
4826;DHT22;2427;50.934;6.776;2022-10-31T04:39:26;12.50;1.00
4826;DHT22;2427;50.934;6.776;2022-10-31T04:41:52;12.50;99.90
4826;DHT22;2427;50.934;6.776;2022-10-31T04:44:17;12.50;99.90
4826;DHT22;2427;50.934;6.776;2022-10-31T04:46:43;12.50;99.90
4826;DHT22;2427;50.934;6.776;2022-10-31T04:49:09;12.50;99.90
4826;DHT22;2427;50.934;6.776;2022-10-31T04:51:34;12.50;99.90
4826;DHT22;2427;50.934;6.776;2022-10-31T04:54:00;12.50;1.00
4826;DHT22;2427;50.934;6.776;2022-10-31T04:56:25;12.50;1.00
4826;DHT22;2427;50.934;6.776;2022-10-31T04:58:51;12.50;1.00
4826;DHT22;2427;50.934;6.776;2022-10-31T05:01:16;12.50;99.90
4826;DHT22;2427;50.934;6.776;2022-10-31T05:03:42;12.40;99.90
4826;DHT22;2427;50.934;6.776;2022-10-31T05:06:08;12.40;1.00
4826;DHT22;2427;50.934;6.776;2022-10-31T05:08:34;12.30;1.00
4826;DHT22;2427;50.934;6.776;2022-10-31T05:11:00;12.20;99.90
4826;DHT22;2427;50.934;6.776;2022-10-31T05:13:27;12.20;99.90
4826;DHT22;2427;50.934;6.776;2022-10-31T05:15:53;12.10;1.00
4826;DHT22;2427;50.934;6.776;2022-10-31T05:18:18;12.10;1.00
4826;DHT22;2427;50.934;6.776;2022-10-31T05:20:44;12.10;1.00
4826;DHT22;2427;50.934;6.776;2022-10-31T05:23:09;12.10;1.00
4826;DHT22;2427;50.934;6.776;2022-10-31T05:25:35;12.10;18.50
4826;DHT22;2427;50.934;6.776;2022-10-31T05:28:01;12.10;17.50
4826;DHT22;2427;50.934;6.776;2022-10-31T05:30:31;12.10;1.00
4826;DHT22;2427;50.934;6.776;2022-10-31T05:32:57;12.10;56.80
4826;DHT22;2427;50.934;6.776;2022-10-31T05:35:28;12.00;21.80
4826;DHT22;2427;50.934;6.776;2022-10-31T05:37:54;12.00;5.90
4826;DHT22;2427;50.934;6.776;2022-10-31T05:40:20;12.00;99.90
4826;DHT22;2427;50.934;6.776;2022-10-31T05:42:46;11.90;99.90
4826;DHT22;2427;50.934;6.776;2022-10-31T05:45:15;11.90;99.90
4826;DHT22;2427;50.934;6.776;2022-10-31T05:47:41;11.90;99.90
4826;DHT22;2427;50.934;6.776;2022-10-31T05:50:07;11.90;1.00
4826;DHT22;2427;50.934;6.776;2022-10-31T05:52:34;11.90;1.00
4826;DHT22;2427;50.934;6.776;2022-10-31T05:54:59;11.80;99.90
4826;DHT22;2427;50.934;6.776;2022-10-31T05:57:25;11.80;1.00
4826;DHT22;2427;50.934;6.776;2022-10-31T05:59:51;11.80;99.90
4826;DHT22;2427;50.934;6.776;2022-10-31T06:02:20;11.80;99.90
4826;DHT22;2427;50.934;6.776;2022-10-31T06:04:46;11.80;99.90
4826;DHT22;2427;50.934;6.776;2022-10-31T06:07:11;11.80;99.90
4826;DHT22;2427;50.934;6.776;2022-10-31T06:09:37;11.90;99.90
4826;DHT22;2427;50.934;6.776;2022-10-31T06:12:02;11.90;99.90
4826;DHT22;2427;50.934;6.776;2022-10-31T06:14:28;11.90;99.90
4826;DHT22;2427;50.934;6.776;2022-10-31T06:16:54;11.90;99.90
4826;DHT22;2427;50.934;6.776;2022-10-31T06:19:20;11.80;99.90
4826;DHT22;2427;50.934;6.776;2022-10-31T06:21:46;11.90;99.90
4826;DHT22;2427;50.934;6.776;2022-10-31T06:24:11;11.80;99.90
4826;DHT22;2427;50.934;6.776;2022-10-31T06:26:37;11.80;99.90
4826;DHT22;2427;50.934;6.776;2022-10-31T06:29:03;11.70;99.90
4826;DHT22;2427;50.934;6.776;2022-10-31T06:31:28;11.70;1.00
4826;DHT22;2427;50.934;6.776;2022-10-31T06:33:54;11.70;1.00
4826;DHT22;2427;50.934;6.776;2022-10-31T06:36:19;11.70;1.00
4826;DHT22;2427;50.934;6.776;2022-10-31T06:38:45;11.70;1.00
4826;DHT22;2427;50.934;6.776;2022-10-31T06:41:10;11.60;1.00
4826;DHT22;2427;50.934;6.776;2022-10-31T06:43:36;11.60;1.00
4826;DHT22;2427;50.934;6.776;2022-10-31T06:46:03;11.60;1.00
4826;DHT22;2427;50.934;6.776;2022-10-31T06:48:29;11.70;85.40
4826;DHT22;2427;50.934;6.776;2022-10-31T06:51:00;11.80;99.90
4826;DHT22;2427;50.934;6.776;2022-10-31T06:53:27;11.80;1.00
4826;DHT22;2427;50.934;6.776;2022-10-31T06:55:55;11.80;1.00
4826;DHT22;2427;50.934;6.776;2022-10-31T06:58:21;11.90;1.00
4826;DHT22;2427;50.934;6.776;2022-10-31T07:00:47;11.90;1.00
4826;DHT22;2427;50.934;6.776;2022-10-31T07:03:14;12.00;1.00
4826;DHT22;2427;50.934;6.776;2022-10-31T07:05:41;12.00;1.00
4826;DHT22;2427;50.934;6.776;2022-10-31T07:08:09;12.00;1.00
4826;DHT22;2427;50.934;6.776;2022-10-31T07:10:36;12.00;1.00
4826;DHT22;2427;50.934;6.776;2022-10-31T07:13:04;12.10;1.00
4826;DHT22;2427;50.934;6.776;2022-10-31T07:15:36;12.10;1.00
4826;DHT22;2427;50.934;6.776;2022-10-31T07:18:03;12.10;1.00
4826;DHT22;2427;50.934;6.776;2022-10-31T07:20:29;12.10;1.00
4826;DHT22;2427;50.934;6.776;2022-10-31T07:22:55;12.10;1.00
4826;DHT22;2427;50.934;6.776;2022-10-31T07:25:21;12.20;1.00
4826;DHT22;2427;50.934;6.776;2022-10-31T07:27:47;12.20;99.90
4826;DHT22;2427;50.934;6.776;2022-10-31T07:30:13;12.20;99.90
4826;DHT22;2427;50.934;6.776;2022-10-31T07:32:43;12.30;76.80
4826;DHT22;2427;50.934;6.776;2022-10-31T07:35:14;12.30;1.00
4826;DHT22;2427;50.934;6.776;2022-10-31T07:37:40;12.30;1.00
4826;DHT22;2427;50.934;6.776;2022-10-31T07:40:07;12.40;1.00
4826;DHT22;2427;50.934;6.776;2022-10-31T07:45:06;12.40;99.90
4826;DHT22;2427;50.934;6.776;2022-10-31T07:47:52;12.50;32.80
4826;DHT22;2427;50.934;6.776;2022-10-31T07:50:19;12.50;1.00
4826;DHT22;2427;50.934;6.776;2022-10-31T07:52:45;12.50;1.00
4826;DHT22;2427;50.934;6.776;2022-10-31T07:55:11;12.50;99.90
4826;DHT22;2427;50.934;6.776;2022-10-31T07:57:37;12.50;99.90
4826;DHT22;2427;50.934;6.776;2022-10-31T08:00:08;12.60;34.50
4826;DHT22;2427;50.934;6.776;2022-10-31T08:02:34;12.50;1.00
4826;DHT22;2427;50.934;6.776;2022-10-31T08:04:59;12.60;1.00
4826;DHT22;2427;50.934;6.776;2022-10-31T08:07:27;12.60;1.00
4826;DHT22;2427;50.934;6.776;2022-10-31T08:09:54;12.60;1.00
4826;DHT22;2427;50.934;6.776;2022-10-31T08:12:20;12.70;1.00
4826;DHT22;2427;50.934;6.776;2022-10-31T08:14:46;12.70;99.90
4826;DHT22;2427;50.934;6.776;2022-10-31T08:17:11;12.80;99.90
4826;DHT22;2427;50.934;6.776;2022-10-31T08:19:37;12.80;99.90
4826;DHT22;2427;50.934;6.776;2022-10-31T08:22:03;12.80;99.90
4826;DHT22;2427;50.934;6.776;2022-10-31T08:24:28;12.80;23.20
4826;DHT22;2427;50.934;6.776;2022-10-31T08:26:54;12.90;1.00
4826;DHT22;2427;50.934;6.776;2022-10-31T08:29:19;12.90;1.00
4826;DHT22;2427;50.934;6.776;2022-10-31T08:31:45;13.00;1.00
4826;DHT22;2427;50.934;6.776;2022-10-31T08:34:11;13.10;1.00
4826;DHT22;2427;50.934;6.776;2022-10-31T08:36:36;13.10;1.00
4826;DHT22;2427;50.934;6.776;2022-10-31T08:39:02;13.20;1.00
4826;DHT22;2427;50.934;6.776;2022-10-31T08:41:28;13.20;99.90
4826;DHT22;2427;50.934;6.776;2022-10-31T08:43:54;13.30;99.90
4826;DHT22;2427;50.934;6.776;2022-10-31T08:46:19;13.40;99.90
4826;DHT22;2427;50.934;6.776;2022-10-31T08:48:48;13.40;99.90
4826;DHT22;2427;50.934;6.776;2022-10-31T08:51:13;13.50;99.90
4826;DHT22;2427;50.934;6.776;2022-10-31T08:53:39;13.50;40.00
4826;DHT22;2427;50.934;6.776;2022-10-31T08:56:04;13.60;1.00
4826;DHT22;2427;50.934;6.776;2022-10-31T08:58:30;13.70;1.00
4826;DHT22;2427;50.934;6.776;2022-10-31T09:00:55;13.80;1.00
4826;DHT22;2427;50.934;6.776;2022-10-31T09:03:26;13.80;1.00
4826;DHT22;2427;50.934;6.776;2022-10-31T09:05:56;14.00;1.00
4826;DHT22;2427;50.934;6.776;2022-10-31T09:08:22;14.10;1.00
4826;DHT22;2427;50.934;6.776;2022-10-31T09:10:47;14.10;1.00
4826;DHT22;2427;50.934;6.776;2022-10-31T09:13:16;14.20;99.90
4826;DHT22;2427;50.934;6.776;2022-10-31T09:15:44;14.30;99.90
4826;DHT22;2427;50.934;6.776;2022-10-31T09:18:11;14.30;99.90
4826;DHT22;2427;50.934;6.776;2022-10-31T09:20:39;14.30;96.20
4826;DHT22;2427;50.934;6.776;2022-10-31T09:23:16;14.40;32.80
4826;DHT22;2427;50.934;6.776;2022-10-31T09:25:43;14.50;35.40
4826;DHT22;2427;50.934;6.776;2022-10-31T09:28:13;14.50;1.00
4826;DHT22;2427;50.934;6.776;2022-10-31T09:30:39;14.60;1.00
4826;DHT22;2427;50.934;6.776;2022-10-31T09:33:07;14.60;1.00
4826;DHT22;2427;50.934;6.776;2022-10-31T09:35:34;14.60;1.00
4826;DHT22;2427;50.934;6.776;2022-10-31T09:38:04;14.70;1.00
4826;DHT22;2427;50.934;6.776;2022-10-31T09:51:16;15.40;1.00
4826;DHT22;2427;50.934;6.776;2022-10-31T09:56:17;15.60;99.90
4826;DHT22;2427;50.934;6.776;2022-10-31T09:58:46;15.80;99.90
4826;DHT22;2427;50.934;6.776;2022-10-31T10:02:04;16.00;99.90
4826;DHT22;2427;50.934;6.776;2022-10-31T10:04:28;16.10;99.90
4826;DHT22;2427;50.934;6.776;2022-10-31T10:06:56;16.30;99.90
4826;DHT22;2427;50.934;6.776;2022-10-31T10:09:25;16.50;99.90
4826;DHT22;2427;50.934;6.776;2022-10-31T10:12:18;16.70;99.90
4826;DHT22;2427;50.934;6.776;2022-10-31T10:23:36;17.10;15.10
4826;DHT22;2427;50.934;6.776;2022-10-31T10:26:20;17.00;19.20
4826;DHT22;2427;50.934;6.776;2022-10-31T10:28:52;16.90;18.80
4826;DHT22;2427;50.934;6.776;2022-10-31T10:31:26;16.90;70.90
4826;DHT22;2427;50.934;6.776;2022-10-31T10:36:44;17.10;45.10
4826;DHT22;2427;50.934;6.776;2022-10-31T10:39:43;17.30;17.70
4826;DHT22;2427;50.934;6.776;2022-10-31T10:42:12;17.30;1.00
4826;DHT22;2427;50.934;6.776;2022-10-31T10:44:57;17.50;1.00
4826;DHT22;2427;50.934;6.776;2022-10-31T10:47:43;17.50;1.00
4826;DHT22;2427;50.934;6.776;2022-10-31T10:50:21;17.60;1.00
4826;DHT22;2427;50.934;6.776;2022-10-31T10:55:36;17.70;1.00
4826;DHT22;2427;50.934;6.776;2022-10-31T10:58:07;17.70;1.00
4826;DHT22;2427;50.934;6.776;2022-10-31T11:00:39;17.80;1.00
4826;DHT22;2427;50.934;6.776;2022-10-31T11:03:06;17.90;1.00
4826;DHT22;2427;50.934;6.776;2022-10-31T11:05:58;17.90;1.00
4826;DHT22;2427;50.934;6.776;2022-10-31T11:08:32;18.10;1.00
4826;DHT22;2427;50.934;6.776;2022-10-31T11:11:10;18.40;1.00
4826;DHT22;2427;50.934;6.776;2022-10-31T11:13:41;18.50;1.00
4826;DHT22;2427;50.934;6.776;2022-10-31T11:16:09;18.60;1.00
4826;DHT22;2427;50.934;6.776;2022-10-31T11:18:44;18.70;1.00
4826;DHT22;2427;50.934;6.776;2022-10-31T11:21:25;18.90;1.00
4826;DHT22;2427;50.934;6.776;2022-10-31T11:26:37;19.20;1.00
4826;DHT22;2427;50.934;6.776;2022-10-31T11:29:05;19.40;1.00
4826;DHT22;2427;50.934;6.776;2022-10-31T11:31:32;19.60;1.00
4826;DHT22;2427;50.934;6.776;2022-10-31T11:34:00;19.80;1.00
4826;DHT22;2427;50.934;6.776;2022-10-31T11:36:30;20.10;1.00
4826;DHT22;2427;50.934;6.776;2022-10-31T11:38:59;20.60;1.00
4826;DHT22;2427;50.934;6.776;2022-10-31T11:41:34;21.30;1.00
4826;DHT22;2427;50.934;6.776;2022-10-31T11:44:25;21.80;1.00
4826;DHT22;2427;50.934;6.776;2022-10-31T11:46:57;22.40;1.00
4826;DHT22;2427;50.934;6.776;2022-10-31T11:49:40;22.80;99.90
4826;DHT22;2427;50.934;6.776;2022-10-31T11:52:27;23.00;99.90
4826;DHT22;2427;50.934;6.776;2022-10-31T11:54:54;22.90;99.90
4826;DHT22;2427;50.934;6.776;2022-10-31T11:57:32;23.00;99.90
4826;DHT22;2427;50.934;6.776;2022-10-31T12:00:00;22.90;99.90
4826;DHT22;2427;50.934;6.776;2022-10-31T12:02:26;23.20;99.90
4826;DHT22;2427;50.934;6.776;2022-10-31T12:07:30;23.40;99.90
4826;DHT22;2427;50.934;6.776;2022-10-31T12:09:56;23.20;99.90
4826;DHT22;2427;50.934;6.776;2022-10-31T12:12:38;22.80;99.90
4826;DHT22;2427;50.934;6.776;2022-10-31T12:15:30;22.70;99.90
4826;DHT22;2427;50.934;6.776;2022-10-31T12:26:15;20.80;99.90
4826;DHT22;2427;50.934;6.776;2022-10-31T12:59:20;19.50;1.00
4826;DHT22;2427;50.934;6.776;2022-10-31T13:01:58;19.50;1.00
4826;DHT22;2427;50.934;6.776;2022-10-31T13:04:57;19.50;1.00
4826;DHT22;2427;50.934;6.776;2022-10-31T13:10:16;19.60;1.00
4826;DHT22;2427;50.934;6.776;2022-10-31T13:12:43;19.40;1.00
4826;DHT22;2427;50.934;6.776;2022-10-31T13:15:22;19.30;1.00
4826;DHT22;2427;50.934;6.776;2022-10-31T13:17:55;19.30;1.00
4826;DHT22;2427;50.934;6.776;2022-10-31T13:20:32;19.10;1.00
4826;DHT22;2427;50.934;6.776;2022-10-31T13:23:10;19.00;1.00
4826;DHT22;2427;50.934;6.776;2022-10-31T13:25:44;18.80;1.00
4826;DHT22;2427;50.934;6.776;2022-10-31T13:30:55;18.60;1.00
4826;DHT22;2427;50.934;6.776;2022-10-31T13:33:42;18.50;1.00
4826;DHT22;2427;50.934;6.776;2022-10-31T13:41:42;18.50;1.00
4826;DHT22;2427;50.934;6.776;2022-10-31T13:44:28;18.50;1.00
4826;DHT22;2427;50.934;6.776;2022-10-31T13:46:57;18.40;1.00
4826;DHT22;2427;50.934;6.776;2022-10-31T13:49:37;18.30;1.00
4826;DHT22;2427;50.934;6.776;2022-10-31T13:52:14;18.20;1.00
4826;DHT22;2427;50.934;6.776;2022-10-31T13:54:43;18.10;1.00
4826;DHT22;2427;50.934;6.776;2022-10-31T13:57:42;18.10;1.00
4826;DHT22;2427;50.934;6.776;2022-10-31T14:00:23;18.10;1.00
4826;DHT22;2427;50.934;6.776;2022-10-31T14:02:56;18.10;1.00
4826;DHT22;2427;50.934;6.776;2022-10-31T14:05:30;18.10;1.00
4826;DHT22;2427;50.934;6.776;2022-10-31T14:07:58;18.10;1.00
4826;DHT22;2427;50.934;6.776;2022-10-31T14:10:50;18.10;1.00
4826;DHT22;2427;50.934;6.776;2022-10-31T14:13:21;18.10;1.00
4826;DHT22;2427;50.934;6.776;2022-10-31T14:18:39;18.00;1.00
4826;DHT22;2427;50.934;6.776;2022-10-31T14:23:50;18.00;1.00
4826;DHT22;2427;50.934;6.776;2022-10-31T14:28:56;17.90;1.00
4826;DHT22;2427;50.934;6.776;2022-10-31T14:31:35;17.90;1.00
4826;DHT22;2427;50.934;6.776;2022-10-31T14:34:34;17.80;1.00
4826;DHT22;2427;50.934;6.776;2022-10-31T14:42:37;17.90;1.00
4826;DHT22;2427;50.934;6.776;2022-10-31T14:50:48;18.00;1.00
4826;DHT22;2427;50.934;6.776;2022-10-31T14:53:28;18.00;1.00
4826;DHT22;2427;50.934;6.776;2022-10-31T14:55:56;18.00;1.00
4826;DHT22;2427;50.934;6.776;2022-10-31T15:00:58;18.00;1.00
4826;DHT22;2427;50.934;6.776;2022-10-31T15:03:38;18.00;1.00
4826;DHT22;2427;50.934;6.776;2022-10-31T15:06:11;18.10;1.00
4826;DHT22;2427;50.934;6.776;2022-10-31T15:08:44;18.10;1.00
4826;DHT22;2427;50.934;6.776;2022-10-31T15:11:24;18.10;1.00
4826;DHT22;2427;50.934;6.776;2022-10-31T15:13:55;18.10;1.00
4826;DHT22;2427;50.934;6.776;2022-10-31T15:16:26;18.10;1.00
4826;DHT22;2427;50.934;6.776;2022-10-31T15:19:04;18.10;1.00
4826;DHT22;2427;50.934;6.776;2022-10-31T15:21:30;18.00;1.00
4826;DHT22;2427;50.934;6.776;2022-10-31T15:24:00;18.00;1.00
4826;DHT22;2427;50.934;6.776;2022-10-31T15:26:38;17.90;1.00
4826;DHT22;2427;50.934;6.776;2022-10-31T15:29:13;17.90;1.00
4826;DHT22;2427;50.934;6.776;2022-10-31T15:31:52;17.90;1.00
4826;DHT22;2427;50.934;6.776;2022-10-31T15:34:39;17.80;1.00
4826;DHT22;2427;50.934;6.776;2022-10-31T15:37:14;17.80;1.00
4826;DHT22;2427;50.934;6.776;2022-10-31T15:39:40;17.80;1.00
4826;DHT22;2427;50.934;6.776;2022-10-31T15:42:33;17.70;1.00
4826;DHT22;2427;50.934;6.776;2022-10-31T15:45:28;17.60;1.00
4826;DHT22;2427;50.934;6.776;2022-10-31T15:47:56;17.50;1.00
4826;DHT22;2427;50.934;6.776;2022-10-31T15:50:31;17.40;1.00
4826;DHT22;2427;50.934;6.776;2022-10-31T15:52:58;17.40;1.00
4826;DHT22;2427;50.934;6.776;2022-10-31T15:55:27;17.30;1.00
4826;DHT22;2427;50.934;6.776;2022-10-31T15:58:03;17.20;1.00
4826;DHT22;2427;50.934;6.776;2022-10-31T16:00:34;17.10;1.00
4826;DHT22;2427;50.934;6.776;2022-10-31T16:05:46;16.90;1.00
4826;DHT22;2427;50.934;6.776;2022-10-31T16:10:57;16.60;1.00
4826;DHT22;2427;50.934;6.776;2022-10-31T16:13:35;16.60;1.00
4826;DHT22;2427;50.934;6.776;2022-10-31T16:16:04;16.60;1.00
4826;DHT22;2427;50.934;6.776;2022-10-31T16:18:37;16.60;1.00
4826;DHT22;2427;50.934;6.776;2022-10-31T16:21:04;16.50;1.00
4826;DHT22;2427;50.934;6.776;2022-10-31T16:23:30;16.40;1.00
4826;DHT22;2427;50.934;6.776;2022-10-31T16:25:56;16.30;1.00
4826;DHT22;2427;50.934;6.776;2022-10-31T16:28:24;16.30;1.00
4826;DHT22;2427;50.934;6.776;2022-10-31T16:30:55;16.30;1.00
4826;DHT22;2427;50.934;6.776;2022-10-31T16:33:30;16.30;1.00
4826;DHT22;2427;50.934;6.776;2022-10-31T16:35:59;16.30;1.00
4826;DHT22;2427;50.934;6.776;2022-10-31T16:38:26;16.20;1.00
4826;DHT22;2427;50.934;6.776;2022-10-31T16:40:52;16.20;1.00
4826;DHT22;2427;50.934;6.776;2022-10-31T16:43:19;16.20;2.10
4826;DHT22;2427;50.934;6.776;2022-10-31T16:45:50;16.20;1.00
4826;DHT22;2427;50.934;6.776;2022-10-31T16:48:19;16.20;1.00
4826;DHT22;2427;50.934;6.776;2022-10-31T16:50:47;16.20;22.80
4826;DHT22;2427;50.934;6.776;2022-10-31T16:53:14;16.10;29.20
4826;DHT22;2427;50.934;6.776;2022-10-31T16:55:44;16.10;22.50
4826;DHT22;2427;50.934;6.776;2022-10-31T16:58:32;16.10;25.10
4826;DHT22;2427;50.934;6.776;2022-10-31T17:00:59;16.10;26.90
4826;DHT22;2427;50.934;6.776;2022-10-31T17:03:25;16.00;31.40
4826;DHT22;2427;50.934;6.776;2022-10-31T17:05:51;16.00;80.50
4826;DHT22;2427;50.934;6.776;2022-10-31T17:08:17;15.90;78.60
4826;DHT22;2427;50.934;6.776;2022-10-31T17:10:45;15.90;90.90
4826;DHT22;2427;50.934;6.776;2022-10-31T17:13:15;15.80;94.20
4826;DHT22;2427;50.934;6.776;2022-10-31T17:15:44;15.80;60.90
4826;DHT22;2427;50.934;6.776;2022-10-31T17:18:12;15.80;37.20
4826;DHT22;2427;50.934;6.776;2022-10-31T17:20:38;15.80;39.40
4826;DHT22;2427;50.934;6.776;2022-10-31T17:23:04;15.80;10.60
4826;DHT22;2427;50.934;6.776;2022-10-31T17:25:30;15.80;1.00
4826;DHT22;2427;50.934;6.776;2022-10-31T17:27:56;15.80;1.00
4826;DHT22;2427;50.934;6.776;2022-10-31T17:30:22;15.80;1.00
4826;DHT22;2427;50.934;6.776;2022-10-31T17:32:49;15.80;1.00
4826;DHT22;2427;50.934;6.776;2022-10-31T17:35:16;15.80;1.00
4826;DHT22;2427;50.934;6.776;2022-10-31T17:37:43;15.90;1.00
4826;DHT22;2427;50.934;6.776;2022-10-31T17:40:11;15.90;1.00
4826;DHT22;2427;50.934;6.776;2022-10-31T17:42:37;15.90;1.00
4826;DHT22;2427;50.934;6.776;2022-10-31T17:45:04;15.90;1.00
4826;DHT22;2427;50.934;6.776;2022-10-31T17:47:30;15.90;1.00
4826;DHT22;2427;50.934;6.776;2022-10-31T17:49:55;15.90;1.00
4826;DHT22;2427;50.934;6.776;2022-10-31T17:52:21;15.90;1.00
4826;DHT22;2427;50.934;6.776;2022-10-31T17:54:47;15.80;1.00
4826;DHT22;2427;50.934;6.776;2022-10-31T17:57:12;15.80;1.00
4826;DHT22;2427;50.934;6.776;2022-10-31T17:59:38;15.80;1.00
4826;DHT22;2427;50.934;6.776;2022-10-31T18:02:04;15.70;1.00
4826;DHT22;2427;50.934;6.776;2022-10-31T18:04:34;15.60;1.00
4826;DHT22;2427;50.934;6.776;2022-10-31T18:07:00;15.50;35.30
4826;DHT22;2427;50.934;6.776;2022-10-31T18:09:26;15.50;89.50
4826;DHT22;2427;50.934;6.776;2022-10-31T18:11:51;15.40;92.00
4826;DHT22;2427;50.934;6.776;2022-10-31T18:14:17;15.30;99.90
4826;DHT22;2427;50.934;6.776;2022-10-31T18:16:42;15.30;99.90
4826;DHT22;2427;50.934;6.776;2022-10-31T18:19:11;15.30;99.90
4826;DHT22;2427;50.934;6.776;2022-10-31T18:21:37;15.20;99.90
4826;DHT22;2427;50.934;6.776;2022-10-31T18:24:03;15.20;99.90
4826;DHT22;2427;50.934;6.776;2022-10-31T18:26:28;15.10;99.90
4826;DHT22;2427;50.934;6.776;2022-10-31T18:28:54;15.10;99.90
4826;DHT22;2427;50.934;6.776;2022-10-31T18:31:20;15.10;99.90
4826;DHT22;2427;50.934;6.776;2022-10-31T18:33:46;15.10;99.90
4826;DHT22;2427;50.934;6.776;2022-10-31T18:36:11;15.10;99.90
4826;DHT22;2427;50.934;6.776;2022-10-31T18:38:39;15.00;99.90
4826;DHT22;2427;50.934;6.776;2022-10-31T18:41:05;15.00;99.90
4826;DHT22;2427;50.934;6.776;2022-10-31T18:43:31;15.00;99.90
4826;DHT22;2427;50.934;6.776;2022-10-31T18:46:09;14.90;99.90
4826;DHT22;2427;50.934;6.776;2022-10-31T18:48:36;14.90;99.90
4826;DHT22;2427;50.934;6.776;2022-10-31T18:51:04;14.80;99.90
4826;DHT22;2427;50.934;6.776;2022-10-31T18:53:29;14.80;99.90
4826;DHT22;2427;50.934;6.776;2022-10-31T18:55:55;14.70;99.90
4826;DHT22;2427;50.934;6.776;2022-10-31T18:58:21;14.70;99.90
4826;DHT22;2427;50.934;6.776;2022-10-31T19:00:46;14.70;99.90
4826;DHT22;2427;50.934;6.776;2022-10-31T19:03:13;14.70;99.90